Flight Track Log - Related Links

Times and Time Zones

All times are in EDT time to prevent confusion due to time zone crossing. See the CES5274 flight status page for this flight to view local times or setup timezone preferences in your user account.

Time Position Orientation Groundspeed Altitude Reporting Facility
EDT Latitude Longitude Course Direction KTS MPH feet Rate Location/Type
Tue 02:54:00 AM 23.4334 114.2475 37° Northeast  Level Estimated
Tue 02:55:00 AM 23.5439 114.3400 37° Northeast  Level Estimated
Tue 02:56:00 AM 23.6543 114.4325 38° Northeast  Level Estimated
Tue 02:57:00 AM 23.7647 114.5253 38° Northeast  Level Estimated
Tue 02:58:00 AM 23.8750 114.6182 38° Northeast  Level Estimated
Tue 02:59:00 AM 23.9853 114.7112 38° Northeast  Level Estimated
Tue 03:00:00 AM 24.0955 114.8044 38° Northeast  Level Estimated
Tue 03:01:00 AM 24.2057 114.8978 38° Northeast  Level Estimated
Tue 03:02:00 AM 24.3158 114.9913 38° Northeast  Level Estimated
Tue 03:03:00 AM 24.4259 115.0850 38° Northeast  Level Estimated
Tue 03:04:00 AM 24.5359 115.1789 38° Northeast  Level Estimated
Tue 03:05:00 AM 24.6458 115.2729 38° Northeast  Level Estimated
Tue 03:06:00 AM 24.7557 115.3671 38° Northeast  Level Estimated
Tue 03:07:00 AM 24.8655 115.4614 38° Northeast  Level Estimated
Tue 03:08:00 AM 24.9753 115.5560 38° Northeast  Level Estimated
Tue 03:09:00 AM 25.0849 115.6507 38° Northeast  Level Estimated
Tue 03:10:00 AM 25.1946 115.7455 38° Northeast  Level Estimated
Tue 03:11:00 AM 25.3042 115.8406 38° Northeast  Level Estimated
Tue 03:12:00 AM 25.4137 115.9358 38° Northeast  Level Estimated
Tue 03:13:00 AM 25.5231 116.0311 38° Northeast  Level Estimated
Tue 03:14:00 AM 25.6325 116.1267 38° Northeast  Level Estimated
Tue 03:15:00 AM 25.7419 116.2224 38° Northeast  Level Estimated
Tue 03:16:00 AM 25.8512 116.3183 38° Northeast  Level Estimated
Tue 03:17:00 AM 25.9604 116.4144 38° Northeast  Level Estimated
Tue 03:18:00 AM 26.0695 116.5107 38° Northeast  Level Estimated
Tue 03:19:00 AM 26.1786 116.6071 38° Northeast  Level Estimated
Tue 03:20:00 AM 26.2876 116.7037 38° Northeast  Level Estimated
Tue 03:21:00 AM 26.3965 116.8005 39° Northeast  Level Estimated
Tue 03:22:00 AM 26.5054 116.8975 39° Northeast  Level Estimated
Tue 03:23:00 AM 26.6142 116.9947 39° Northeast  Level Estimated
Tue 03:24:00 AM 26.7230 117.0920 39° Northeast  Level Estimated
Tue 03:25:00 AM 26.8317 117.1896 39° Northeast  Level Estimated
Tue 03:26:00 AM 26.9403 117.2873 39° Northeast  Level Estimated
Tue 03:27:00 AM 27.0489 117.3852 39° Northeast  Level Estimated
Tue 03:28:00 AM 27.1573 117.4833 39° Northeast  Level Estimated
Tue 03:29:00 AM 27.2658 117.5816 39° Northeast  Level Estimated
Tue 03:30:00 AM 27.3741 117.6801 39° Northeast  Level Estimated
Tue 03:31:00 AM 27.4824 117.7788 39° Northeast  Level Estimated
Tue 03:32:00 AM 27.5906 117.8776 39° Northeast  Level Estimated
Tue 03:33:00 AM 27.6987 117.9767 39° Northeast  Level Estimated
Tue 03:34:00 AM 27.8068 118.0760 39° Northeast  Level Estimated
Tue 03:35:00 AM 27.9148 118.1754 39° Northeast  Level Estimated
Tue 03:36:00 AM 28.0227 118.2751 39° Northeast  Level Estimated
Tue 03:37:00 AM 28.1306 118.3750 39° Northeast  Level Estimated
Tue 03:38:00 AM 28.2383 118.4750 39° Northeast  Level Estimated
Tue 03:39:00 AM 28.3461 118.5753 39° Northeast  Level Estimated
Tue 03:40:00 AM 28.4537 118.6758 39° Northeast  Level Estimated
Tue 03:41:00 AM 28.5613 118.7764 39° Northeast  Level Estimated
Tue 03:42:00 AM 28.6687 118.8773 39° Northeast  Level Estimated
Tue 03:43:00 AM 28.7761 118.9784 40° Northeast  Level Estimated
Tue 03:44:00 AM 28.8835 119.0797 40° Northeast  Level Estimated
Tue 03:45:00 AM 28.9907 119.1812 40° Northeast  Level Estimated
Tue 03:46:00 AM 29.0979 119.2829 40° Northeast  Level Estimated
Tue 03:47:00 AM 29.2050 119.3848 40° Northeast  Level Estimated
Tue 03:48:00 AM 29.3120 119.4870 40° Northeast  Level Estimated
Tue 03:49:00 AM 29.4190 119.5893 40° Northeast  Level Estimated
Tue 03:50:00 AM 29.5259 119.6919 40° Northeast  Level Estimated
Tue 03:51:00 AM 29.6327 119.7947 40° Northeast  Level Estimated
Tue 03:52:00 AM 29.7394 119.8977 40° Northeast  Level Estimated
Tue 03:53:00 AM 29.8460 120.0009 40° Northeast  Level Estimated
Tue 03:54:00 AM 29.9526 120.1044 40° Northeast  Level Estimated
Tue 03:55:00 AM 30.0590 120.2080 40° Northeast  Level Estimated
Tue 03:56:00 AM 30.1654 120.3119 40° Northeast  Level Estimated
Tue 03:57:00 AM 30.2717 120.4160 40° Northeast  Level Estimated
Tue 03:58:00 AM 30.3780 120.5204 40° Northeast  Level Estimated
Tue 03:59:00 AM 30.4841 120.6249 40° Northeast  Level Estimated
Tue 04:00:00 AM 30.5902 120.7297 40° Northeast  Level Estimated
Tue 04:01:00 AM 30.6961 120.8348 40° Northeast  Level Estimated
Tue 04:02:00 AM 30.8020 120.9400 40° Northeast  Level Estimated
Tue 04:03:00 AM 30.9078 121.0455 41° Northeast  Level Estimated
Tue 04:04:00 AM 31.0136 121.1512 41° Northeast  Level Estimated
Tue 04:05:00 AM 31.1192 121.2572 41° Northeast  Level Estimated
Tue 04:06:00 AM 31.1979 121.3363 41° Northeast  Level Estimated
Tue 04:06:35 AM 29.6851 120.8687 28° Northeast 443 510 20,700  Level FlightAware ADS-B
Tue 04:07:00 AM 31.1979 121.3363 North  Level Estimated
Tue 04:07:35 AM 29.7898 120.9331 28° Northeast 439 505 20,600  Level FlightAware ADS-B
Tue 04:08:39 AM 29.9076 121.0057 28° Northeast 436 502 19,500 -1,000 Descending FlightAware ADS-B
Tue 04:10:35 AM 30.1118 121.1318 28° Northeast 422 486 17,600 -961 Descending FlightAware ADS-B
Tue 04:11:40 AM 30.2213 121.1994 28° Northeast 417 480 16,600 -962 Descending FlightAware ADS-B
Tue 04:12:21 AM 30.2963 121.2266 North 419 482 15,900 -963 Descending FlightAware ADS-B
Tue 04:13:01 AM 30.3704 121.2361 North 414 476 15,300 -987 Descending FlightAware ADS-B
Tue 04:13:40 AM 30.4469 121.2460 North 408 470 14,600 -987 Descending FlightAware ADS-B
Tue 04:14:20 AM 30.5170 121.2562 North 406 467 14,000 -975 Descending FlightAware ADS-B
Tue 04:15:00 AM 30.5933 121.2673 North 376 433 13,300 -1,275 Descending FlightAware ADS-B
Tue 04:15:40 AM 30.6627 121.2768 North 356 410 12,300 -1,339 Descending FlightAware ADS-B
Tue 04:16:52 AM 30.7734 121.2924 North 327 376 10,800 -1,286 Descending FlightAware ADS-B
Tue 04:17:32 AM 30.8346 121.3010 North 314 361 9,900 -1,475 Descending FlightAware ADS-B
Tue 04:17:53 AM 30.8649 121.3052 North 312 359 9,300 -1,833 Descending FlightAware ADS-B
Tue 04:18:08 AM 30.8692 121.3058 North 312 359 8,800 -978 Descending FlightAware ADS-B
Tue 04:20:08 AM 31.0550 121.3320 North 304 350 7,100 -734 Descending FlightAware ADS-B (ZSSS / SHA)
Tue 04:20:27 AM 31.0832 121.3360 North 300 345 7,100 -529 Level FlightAware ADS-B (ZSSS / SHA)
Tue 04:20:42 AM 31.1030 121.3387 North 297 342 6,800 -1,500 Descending FlightAware ADS-B (ZSSS / SHA)
Tue 04:20:47 AM 31.1097 121.3389 North 299 344 6,600 -1,800 Descending FlightAware ADS-B (ZSSS / SHA)
Tue 04:20:52 AM 31.1168 121.3380 350° North 302 348 6,500 -1,200 Descending FlightAware ADS-B (ZSSS / SHA)
Tue 04:20:57 AM 31.1240 121.3354 340° North 303 349 6,400 -1,200 Descending FlightAware ADS-B (ZSSS / SHA)
Tue 04:21:02 AM 31.1310 121.3311 327° Northwest 305 351 6,300 -1,200 Descending FlightAware ADS-B (ZSSS / SHA)
Tue 04:21:07 AM 31.1348 121.3277 319° Northwest 306 352 6,200 -600 Descending FlightAware ADS-B (ZSSS / SHA)
Tue 04:21:12 AM 31.1401 121.3216 312° West 305 351 6,200 -300 Level FlightAware ADS-B (ZSSS / SHA)
Tue 04:21:27 AM 31.1547 121.3007 308° West 305 351 6,100 -167 Descending FlightAware ADS-B (ZSSS / SHA)
Tue 04:21:48 AM 31.1717 121.2756 309° West 282 325 6,100  Level FlightAware ADS-B (ZSSS / SHA)
Tue 04:22:07 AM 31.1869 121.2540 310° West 265 305 6,100 -182 Level FlightAware ADS-B (ZSSS / SHA)
Tue 04:22:21 AM 31.1979 121.2385 311° West 258 297 6,000 -600 Descending FlightAware ADS-B (ZSSS / SHA)
Tue 04:22:27 AM 31.2012 121.2346 320° Northwest 256 295 5,900 -1,500 Descending FlightAware ADS-B (ZSSS / SHA)
Tue 04:22:33 AM 31.2085 121.2285 332° Northwest 256 295 5,700 -1,800 Descending FlightAware ADS-B (ZSSS / SHA)
Tue 04:22:37 AM 31.2129 121.2263 341° North 256 295 5,600 -857 Descending FlightAware ADS-B (ZSSS / SHA)
Tue 04:22:40 AM 31.2172 121.2250 350° North 256 295 5,600 -1,200 Level FlightAware ADS-B (ZSSS / SHA)
Tue 04:22:47 AM 31.2243 121.2242 North 254 292 5,400 -1,091 Descending FlightAware ADS-B (ZSSS / SHA)
Tue 04:23:02 AM 31.2432 121.2242 North 250 288 5,200 -800 Descending FlightAware ADS-B (ZSSS / SHA)
Tue 04:23:17 AM 31.2590 121.2240 North 246 283 5,000 -800 Descending FlightAware ADS-B (ZSSS / SHA)
Tue 04:23:32 AM 31.2760 121.2237 North 237 273 4,800 -600 Descending FlightAware ADS-B (ZSSS / SHA)
Tue 04:23:47 AM 31.2935 121.2235 North 227 261 4,700 -600 Descending FlightAware ADS-B (ZSSS / SHA)
Tue 04:24:02 AM 31.3074 121.2233 North 222 255 4,500 -581 Descending FlightAware ADS-B (ZSSS / SHA)
Tue 04:24:18 AM 31.3243 121.2231 North 215 247 4,400 -706 Descending FlightAware ADS-B (ZSSS / SHA)
Tue 04:24:36 AM 31.3387 121.2229 North 215 247 4,100 -1,111 Descending FlightAware ADS-B (ZSSS / SHA)
Tue 04:25:12 AM 31.3750 121.2264 29° Northeast 205 236 3,400 -1,231 Descending FlightAware ADS-B (ZSSS / SHA)
Tue 04:25:15 AM 31.3771 121.2282 36° Northeast 204 235 3,300 -579 Descending FlightAware ADS-B (ZSSS / SHA)
Tue 04:27:37 AM 31.3305 121.3291 175° South 157 181 2,000 -453 Descending FlightAware ADS-B (ZSSS / SHA)
Tue 04:28:07 AM 31.3062 121.3305 177° South 155 178 2,000 -267 Level FlightAware ADS-B (ZSSS / SHA)
Tue 04:28:22 AM 31.2963 121.3310 176° South 151 174 1,800 -800 Descending FlightAware ADS-B (ZSSS / SHA)
Tue 04:28:37 AM 31.2852 121.3315 177° South 143 165 1,600 -800 Descending FlightAware ADS-B (ZSSS / SHA)
Tue 04:28:52 AM 31.2757 121.3320 177° South 144 166 1,400 -800 Descending FlightAware ADS-B (ZSSS / SHA)
Tue 04:29:07 AM 31.2649 121.3327 176° South 144 166 1,200 -600 Descending FlightAware ADS-B (ZSSS / SHA)
Tue 04:29:22 AM 31.2560 121.3332 176° South 140 161 1,100 -600 Descending FlightAware ADS-B (ZSSL)
Tue 04:29:37 AM 31.2461 121.3337 177° South 139 160 900 -800 Descending FlightAware ADS-B (ZSSS / SHA)
Tue 04:29:52 AM 31.2356 121.3342 177° South 139 160 700 -727 Descending FlightAware ADS-B (ZSSS / SHA)
Tue 04:30:10 AM 31.2248 121.3348 177° South 139 160 500 -667 Descending FlightAware ADS-B (ZSSS / SHA)

Login

Don't have an account? Register now (free) for customized features, flight alerts, and more!